createdAt,value
2022-08-19T00:02:09.094Z,25.08
2022-08-19T00:06:17.105Z,25.04
2022-08-19T00:10:28.994Z,24.98
2022-08-19T00:14:36.980Z,24.89
2022-08-19T00:18:44.901Z,24.82
2022-08-19T00:22:53.077Z,24.75
2022-08-19T00:27:25.996Z,24.65
2022-08-19T00:31:32.268Z,24.56
2022-08-19T00:35:40.535Z,24.49
2022-08-19T00:39:49.264Z,24.46
2022-08-19T00:44:07.010Z,24.43
2022-08-19T00:48:15.403Z,24.41
2022-08-19T00:52:26.621Z,24.42
2022-08-19T00:56:34.712Z,24.40
2022-08-19T01:00:42.359Z,24.36
2022-08-19T01:04:50.338Z,24.31
2022-08-19T01:08:58.451Z,24.29
2022-08-19T01:13:07.074Z,24.26
2022-08-19T01:17:15.980Z,24.21
2022-08-19T01:21:27.279Z,24.13
2022-08-19T01:25:44.564Z,24.08
2022-08-19T01:29:53.579Z,24.02
2022-08-19T01:34:02.702Z,23.97
2022-08-19T01:38:12.573Z,23.92
2022-08-19T01:42:20.986Z,23.88
2022-08-19T01:46:37.985Z,23.87
2022-08-19T01:50:45.922Z,23.86
2022-08-19T01:54:53.878Z,23.82
2022-08-19T01:59:05.485Z,23.76
2022-08-19T02:03:17.220Z,23.64
2022-08-19T02:07:26.553Z,23.53
2022-08-19T02:11:36.788Z,23.43
2022-08-19T02:15:44.375Z,23.34
2022-08-19T02:19:52.422Z,23.25
2022-08-19T02:24:00.513Z,23.17
2022-08-19T02:28:08.976Z,23.13
2022-08-19T02:32:17.163Z,23.10
2022-08-19T02:36:26.062Z,23.07
2022-08-19T02:40:35.640Z,23.02
2022-08-19T02:44:43.583Z,22.99
2022-08-19T02:48:52.276Z,22.97
2022-08-19T02:53:00.033Z,22.93
2022-08-19T02:57:09.125Z,22.86
2022-08-19T03:01:27.024Z,22.79
2022-08-19T03:05:46.918Z,22.70
2022-08-19T03:10:00.122Z,22.60
2022-08-19T03:14:09.626Z,22.53
2022-08-19T03:18:18.653Z,22.46
2022-08-19T03:22:27.942Z,22.37
2022-08-19T03:26:36.499Z,22.30
2022-08-19T03:30:46.841Z,22.24
2022-08-19T03:34:59.627Z,22.20
2022-08-19T03:39:09.627Z,22.16
2022-08-19T03:43:18.929Z,22.09
2022-08-19T03:47:26.778Z,22.03
2022-08-19T03:51:36.886Z,22.02
2022-08-19T03:55:45.658Z,22.00
2022-08-19T03:59:53.756Z,21.97
2022-08-19T04:04:03.451Z,22.00
2022-08-19T04:08:14.048Z,21.98
2022-08-19T04:12:22.569Z,21.92
2022-08-19T04:16:35.306Z,21.89
2022-08-19T04:20:48.831Z,21.85
2022-08-19T04:24:57.198Z,21.82
2022-08-19T04:29:10.417Z,21.81
2022-08-19T04:33:26.525Z,21.82
2022-08-19T04:37:36.788Z,21.87
2022-08-19T04:42:02.632Z,21.93
2022-08-19T04:46:12.219Z,21.91
2022-08-19T04:50:44.757Z,21.87
2022-08-19T04:54:52.582Z,21.88
2022-08-19T04:59:04.304Z,21.92
2022-08-19T05:03:12.354Z,21.96
2022-08-19T05:07:20.026Z,22.02
2022-08-19T05:11:29.956Z,22.10
2022-08-19T05:15:37.933Z,22.20
2022-08-19T05:20:04.498Z,22.31
2022-08-19T05:24:12.762Z,22.45
2022-08-19T05:28:21.415Z,22.55
2022-08-19T05:32:29.869Z,22.66
2022-08-19T05:36:41.169Z,22.77
2022-08-19T05:40:50.636Z,22.90
2022-08-19T05:44:58.598Z,23.04
2022-08-19T05:49:07.690Z,23.16
2022-08-19T05:53:17.542Z,23.29
2022-08-19T05:57:25.599Z,23.36
2022-08-19T06:01:33.824Z,23.46
2022-08-19T06:05:46.225Z,23.58
2022-08-19T06:10:01.509Z,23.72
2022-08-19T06:14:16.452Z,23.91
2022-08-19T06:18:26.593Z,24.05
2022-08-19T06:22:34.847Z,24.15
2022-08-19T06:30:57.565Z,24.52
2022-08-19T06:35:05.804Z,24.69
2022-08-19T06:39:15.776Z,24.86
2022-08-19T06:43:23.868Z,25.10
2022-08-19T06:47:37.446Z,25.41
2022-08-19T06:51:49.044Z,25.65
2022-08-19T06:56:01.479Z,25.80
2022-08-19T07:00:13.197Z,26.08
2022-08-19T07:04:27.252Z,26.32
2022-08-19T07:08:35.177Z,26.55
2022-08-19T07:12:43.375Z,26.80
2022-08-19T07:16:52.889Z,27.05
2022-08-19T07:21:09.415Z,27.27
2022-08-19T07:25:18.893Z,27.47
2022-08-19T07:29:28.412Z,27.64
2022-08-19T07:33:39.630Z,27.80
2022-08-19T07:37:48.136Z,27.93
2022-08-19T07:41:56.916Z,27.99
2022-08-19T07:46:04.612Z,28.00
2022-08-19T07:50:14.511Z,28.00
2022-08-19T07:54:28.123Z,28.03
2022-08-19T07:58:39.289Z,28.08
2022-08-19T08:02:47.216Z,28.19
2022-08-19T08:07:15.085Z,28.33
2022-08-19T08:11:24.943Z,28.45
2022-08-19T08:15:32.785Z,28.54
2022-08-19T08:19:43.603Z,28.70
2022-08-19T08:23:56.001Z,28.83
2022-08-19T08:28:04.264Z,29.01
2022-08-19T08:32:14.916Z,29.10
2022-08-19T08:36:26.657Z,29.13
2022-08-19T08:40:40.632Z,29.16
2022-08-19T08:49:14.377Z,29.34
2022-08-19T08:53:29.785Z,29.48
2022-08-19T08:57:46.349Z,29.54
2022-08-19T09:01:53.979Z,29.59
2022-08-19T09:06:05.554Z,29.63
2022-08-19T09:10:28.671Z,29.69
2022-08-19T09:14:51.845Z,29.78
2022-08-19T09:19:03.639Z,29.83
2022-08-19T09:23:14.584Z,29.96
2022-08-19T09:27:35.626Z,30.15
2022-08-19T09:31:51.219Z,30.32
2022-08-19T09:36:08.891Z,30.36
2022-08-19T09:40:19.640Z,30.41
2022-08-19T09:44:28.115Z,30.47
2022-08-19T09:48:37.734Z,30.58
2022-08-19T09:52:55.399Z,30.69
2022-08-19T09:57:07.618Z,30.86
2022-08-19T10:01:22.904Z,31.03
2022-08-19T10:05:48.893Z,31.14
2022-08-19T10:09:57.538Z,31.31
2022-08-19T10:14:07.007Z,31.40
2022-08-19T10:18:14.796Z,31.38
2022-08-19T10:22:23.311Z,31.34
2022-08-19T10:26:37.377Z,31.37
2022-08-19T10:30:46.386Z,31.45
2022-08-19T10:34:58.771Z,31.59
2022-08-19T10:39:10.046Z,31.76
2022-08-19T10:43:23.731Z,31.91
2022-08-19T10:47:32.772Z,31.99
2022-08-19T10:52:07.710Z,32.15
2022-08-19T10:56:35.682Z,32.26
2022-08-19T11:00:44.206Z,32.44
2022-08-19T11:04:52.836Z,32.47
2022-08-19T11:09:02.743Z,32.40
2022-08-19T11:13:10.775Z,32.47
2022-08-19T11:17:19.226Z,32.52
2022-08-19T11:21:28.700Z,32.44
2022-08-19T11:25:36.882Z,32.38
2022-08-19T11:29:45.412Z,32.41
2022-08-19T11:33:53.977Z,32.42
2022-08-19T11:38:07.190Z,32.28
2022-08-19T11:42:35.909Z,32.15
2022-08-19T11:46:46.692Z,32.13
2022-08-19T11:50:56.738Z,32.33
2022-08-19T11:55:04.974Z,32.73
2022-08-19T11:59:14.931Z,32.97
2022-08-19T12:03:23.531Z,33.17
2022-08-19T12:07:32.824Z,33.35
2022-08-19T12:11:41.704Z,33.51
2022-08-19T12:15:49.979Z,33.63
2022-08-19T12:19:59.861Z,33.85
2022-08-19T12:24:10.824Z,34.03
2022-08-19T12:28:18.920Z,34.17
2022-08-19T12:32:29.098Z,34.33
2022-08-19T12:36:37.848Z,34.48
2022-08-19T12:40:45.790Z,34.62
2022-08-19T12:44:54.143Z,34.55
2022-08-19T12:49:15.334Z,34.40
2022-08-19T12:53:31.420Z,34.04
2022-08-19T12:57:40.111Z,33.99
2022-08-19T13:01:48.329Z,34.00
2022-08-19T13:05:56.473Z,34.00
2022-08-19T13:10:05.362Z,33.97
2022-08-19T13:14:13.511Z,33.96
2022-08-19T13:18:21.084Z,34.03
2022-08-19T13:22:29.112Z,33.88
2022-08-19T13:26:36.964Z,33.67
2022-08-19T13:31:01.415Z,33.52
2022-08-19T13:35:13.781Z,33.37
2022-08-19T13:39:25.194Z,33.16
2022-08-19T13:43:33.213Z,32.97
2022-08-19T13:47:45.894Z,32.83
2022-08-19T13:51:55.370Z,32.72
2022-08-19T13:56:03.060Z,32.63
2022-08-19T14:00:15.068Z,32.53
2022-08-19T14:04:22.940Z,32.40
2022-08-19T14:08:45.539Z,32.25
2022-08-19T14:12:56.847Z,32.12
2022-08-19T14:17:04.610Z,32.02
2022-08-19T14:21:19.660Z,31.87
2022-08-19T14:25:29.917Z,31.53
2022-08-19T14:29:39.237Z,31.14
2022-08-19T14:33:48.174Z,30.86
2022-08-19T14:37:56.789Z,30.69
2022-08-19T14:42:11.494Z,30.48
2022-08-19T14:46:21.750Z,30.28
2022-08-19T14:50:31.040Z,30.19
2022-08-19T14:54:39.111Z,30.12
2022-08-19T14:58:47.846Z,29.99
2022-08-19T15:02:56.960Z,29.91
2022-08-19T15:07:05.465Z,29.87
2022-08-19T15:11:15.658Z,29.71
2022-08-19T15:15:24.082Z,29.59
2022-08-19T15:19:32.475Z,29.42
2022-08-19T15:23:40.957Z,29.25
2022-08-19T15:27:54.330Z,29.21
2022-08-19T15:32:07.279Z,29.17
2022-08-19T15:36:16.727Z,29.10
2022-08-19T15:40:29.173Z,29.03
2022-08-19T15:44:37.607Z,29.00
2022-08-19T15:48:55.853Z,28.96
2022-08-19T15:53:06.915Z,28.89
2022-08-19T15:57:32.326Z,28.83
2022-08-19T16:01:57.368Z,28.76
2022-08-19T16:06:22.869Z,28.72
2022-08-19T16:10:30.843Z,28.66
2022-08-19T16:14:39.820Z,28.55
2022-08-19T16:18:47.661Z,28.50
2022-08-19T16:22:55.572Z,28.49
2022-08-19T16:27:05.287Z,28.46
2022-08-19T16:31:15.023Z,28.45
2022-08-19T16:35:23.048Z,28.39
2022-08-19T16:39:30.676Z,28.33
2022-08-19T16:43:39.398Z,28.29
2022-08-19T16:47:47.294Z,28.28
2022-08-19T16:51:55.375Z,28.29
2022-08-19T16:56:02.657Z,28.24
2022-08-19T17:00:14.060Z,28.17
2022-08-19T17:04:22.112Z,28.11
2022-08-19T17:08:30.250Z,28.05
2022-08-19T17:12:38.694Z,27.98
2022-08-19T17:16:46.107Z,27.88
2022-08-19T17:20:56.055Z,27.86
2022-08-19T17:25:05.899Z,27.88
2022-08-19T17:29:13.213Z,27.90
2022-08-19T17:33:21.664Z,27.88
2022-08-19T17:37:31.407Z,27.85
2022-08-19T17:41:40.562Z,27.82
2022-08-19T17:45:49.136Z,27.79
2022-08-19T17:49:57.345Z,27.77
2022-08-19T17:54:06.750Z,27.75
2022-08-19T17:58:14.502Z,27.72
2022-08-19T18:02:24.277Z,27.69
2022-08-19T18:06:31.914Z,27.64
2022-08-19T18:10:40.345Z,27.58
2022-08-19T18:14:48.307Z,27.51
2022-08-19T18:18:56.703Z,27.41
2022-08-19T18:23:45.027Z,27.33
2022-08-19T18:27:34.358Z,27.23
2022-08-19T18:31:43.782Z,27.13
2022-08-19T18:35:53.496Z,27.01
2022-08-19T18:40:18.918Z,26.90
2022-08-19T18:44:43.862Z,26.85
2022-08-19T18:49:07.531Z,26.80
2022-08-19T18:53:16.747Z,26.73
2022-08-19T18:57:25.103Z,26.69
2022-08-19T19:01:36.841Z,26.68
2022-08-19T19:05:44.986Z,26.64
2022-08-19T19:09:52.971Z,26.60
2022-08-19T19:14:02.635Z,26.62
2022-08-19T19:18:10.658Z,26.64
2022-08-19T19:22:22.593Z,26.64
2022-08-19T19:26:30.471Z,26.59
2022-08-19T19:30:38.193Z,26.42
2022-08-19T19:34:46.061Z,26.24
2022-08-19T19:38:54.333Z,26.10
2022-08-19T19:43:04.870Z,25.97
2022-08-19T19:47:12.958Z,25.89
2022-08-19T19:51:20.966Z,25.85
2022-08-19T19:55:30.666Z,25.85
2022-08-19T19:59:38.444Z,25.83
2022-08-19T20:03:53.342Z,25.81
2022-08-19T20:08:18.515Z,25.80
2022-08-19T20:12:26.894Z,25.82
2022-08-19T20:16:35.308Z,25.81
2022-08-19T20:20:43.521Z,25.76
2022-08-19T20:24:53.721Z,25.73
2022-08-19T20:29:13.661Z,25.66
2022-08-19T20:33:31.596Z,25.57
2022-08-19T20:37:41.726Z,25.45
2022-08-19T20:41:49.655Z,25.33
2022-08-19T20:45:57.521Z,25.30
2022-08-19T20:50:05.427Z,25.26
2022-08-19T20:54:13.002Z,25.14
2022-08-19T20:58:22.912Z,25.09
2022-08-19T21:02:30.379Z,25.09
2022-08-19T21:06:38.777Z,25.09
2022-08-19T21:10:53.640Z,24.95
2022-08-19T21:15:01.363Z,24.77
2022-08-19T21:19:09.486Z,24.67
2022-08-19T21:23:20.602Z,24.62
2022-08-19T21:27:28.297Z,24.54
2022-08-19T21:31:36.156Z,24.45
2022-08-19T21:35:44.301Z,24.42
2022-08-19T21:39:51.811Z,24.44
2022-08-19T21:44:00.230Z,24.44
2022-08-19T21:48:08.700Z,24.45
2022-08-19T21:52:19.243Z,24.43
2022-08-19T21:56:27.012Z,24.42
2022-08-19T22:00:36.495Z,24.29
2022-08-19T22:04:44.645Z,24.15
2022-08-19T22:08:53.788Z,24.07
2022-08-19T22:13:04.028Z,24.03
2022-08-19T22:17:12.252Z,24.00
2022-08-19T22:21:40.587Z,23.99
2022-08-19T22:25:49.254Z,23.98
2022-08-19T22:29:56.891Z,23.95
2022-08-19T22:34:04.396Z,23.90
2022-08-19T22:38:13.185Z,23.87
2022-08-19T22:42:23.151Z,23.83
2022-08-19T22:46:34.418Z,23.79
2022-08-19T22:50:43.697Z,23.75
2022-08-19T22:54:53.093Z,23.74
2022-08-19T22:59:00.767Z,23.69
2022-08-19T23:03:08.597Z,23.62
2022-08-19T23:07:16.418Z,23.56
2022-08-19T23:11:24.458Z,23.54
2022-08-19T23:15:33.232Z,23.48
2022-08-19T23:19:40.949Z,23.37
2022-08-19T23:23:48.422Z,23.22
2022-08-19T23:28:13.785Z,23.09
2022-08-19T23:32:22.097Z,22.96
2022-08-19T23:36:29.581Z,22.85
2022-08-19T23:40:38.632Z,22.75
2022-08-19T23:44:51.940Z,22.65
2022-08-19T23:49:01.301Z,22.51
2022-08-19T23:53:09.504Z,22.41
2022-08-19T23:57:20.961Z,22.34
